Fantasy — H3GS — position and weather

sailwx.info

Track history (hours):
 
Tides and Currents Weather Stations Pressure Air Temp Water Temp Dewpoint Dewpoint Depression Visibility Wind Speed Wind Dir Waves Ship Positions

Fantasy

Operator: Carnival Cruise Lines

Last reported at 2017-Jan-17 00:30 UTC. Time now 2017-Jan-19 21:22 UTC.
Position N 20°41' W 086°53'.

Type: Ship. MMSI: 353486000.

Date/timePositionNaut miles runAvg speedWind from/ knotsBaromVisibWave heightAir tempDewpointWater temp
2017-Jan-17 00:30N 20°41' W 086°53'1313.5
2017-Jan-16 23:33N 20°29' W 086°59'1 0.7
2017-Jan-16 22:31N 20°29' W 086°59'0 0.0
2017-Jan-16 21:28N 20°29' W 086°59'0 0.0
2017-Jan-16 20:33N 20°29' W 086°59'0 0.0
2017-Jan-16 19:33N 20°29' W 086°59'0 0.0
2017-Jan-16 18:33N 20°29' W 086°59'0 0.0
2017-Jan-16 17:32N 20°29' W 086°59'0 0.0
2017-Jan-16 16:32N 20°29' W 086°59'0 0.0
2017-Jan-16 15:31N 20°29' W 086°59'0 0.0
2017-Jan-16 14:31N 20°29' W 086°59'5 5.3
2017-Jan-16 13:33N 20°34' W 086°59'42216.5
2017-Jan-15 12:00N 27°30' W 088°12'   110 / 201029.010.8 22.017.224.0
2017-Jan-12 23:33N 20°37' W 086°56'8 7.9
2017-Jan-12 22:31N 20°29' W 086°59'0 0.0
2017-Jan-12 21:34N 20°29' W 086°59'0 0.0
2017-Jan-12 20:33N 20°29' W 086°59'0 0.0
2017-Jan-12 19:33N 20°29' W 086°59'0 0.0
2017-Jan-12 18:29N 20°29' W 086°59'0 0.0
2017-Jan-12 17:32N 20°29' W 086°59'0 0.0
2017-Jan-12 16:31N 20°29' W 086°59'0 0.0
2017-Jan-12 15:31N 20°29' W 086°59'0 0.0
2017-Jan-12 14:34N 20°29' W 086°59'0 0.0
2017-Jan-12 13:33N 20°29' W 086°59'8 7.7
2017-Jan-12 12:33N 20°36' W 086°56'398 8.5
2017-Jan-10 14:00N 27°06' W 088°24'   100 / 251027.010.8 20.010.924.0
2017-Jan-07 23:27N 20°39' W 086°54'1112.4
2017-Jan-07 22:33N 20°29' W 086°59'0 0.0
2017-Jan-07 21:32N 20°29' W 086°59'0 0.0
2017-Jan-07 20:32N 20°29' W 086°59'0 0.0
2017-Jan-07 19:32N 20°29' W 086°59'0 0.0
2017-Jan-07 18:31N 20°29' W 086°59'0 0.0
2017-Jan-07 17:31N 20°29' W 086°59'0 0.0
2017-Jan-07 16:33N 20°29' W 086°59'0 0.0
2017-Jan-07 15:33N 20°29' W 086°59'0 0.0
2017-Jan-07 14:32N 20°29' W 086°59'0 0.2
2017-Jan-07 13:33N 20°29' W 086°59'5 5.3
2017-Jan-07 12:33N 20°34' W 086°57'  
Track history (hours):
 
Tides and Currents Weather Stations Pressure Air Temp Water Temp Dewpoint Dewpoint Depression Visibility Wind Speed Wind Dir Waves Ship Positions

Fantasy

Operator: Carnival Cruise Lines

Last reported at 2017-Jan-17 00:30 UTC. Time now 2017-Jan-19 21:22 UTC.
Position N 20°41' W 086°53'.

Type: Ship. MMSI: 353486000.

Date/timePositionNaut miles runAvg speedWind from/ knotsBaromVisibWave heightAir tempDewpointWater temp
2017-Jan-17 00:30N 20°41' W 086°53'1313.5
2017-Jan-16 23:33N 20°29' W 086°59'1 0.7
2017-Jan-16 22:31N 20°29' W 086°59'0 0.0
2017-Jan-16 21:28N 20°29' W 086°59'0 0.0
2017-Jan-16 20:33N 20°29' W 086°59'0 0.0
2017-Jan-16 19:33N 20°29' W 086°59'0 0.0
2017-Jan-16 18:33N 20°29' W 086°59'0 0.0
2017-Jan-16 17:32N 20°29' W 086°59'0 0.0
2017-Jan-16 16:32N 20°29' W 086°59'0 0.0
2017-Jan-16 15:31N 20°29' W 086°59'0 0.0
2017-Jan-16 14:31N 20°29' W 086°59'5 5.3
2017-Jan-16 13:33N 20°34' W 086°59'42216.5
2017-Jan-15 12:00N 27°30' W 088°12'   110 / 201029.010.8 22.017.224.0
2017-Jan-12 23:33N 20°37' W 086°56'8 7.9
2017-Jan-12 22:31N 20°29' W 086°59'0 0.0
2017-Jan-12 21:34N 20°29' W 086°59'0 0.0
2017-Jan-12 20:33N 20°29' W 086°59'0 0.0
2017-Jan-12 19:33N 20°29' W 086°59'0 0.0
2017-Jan-12 18:29N 20°29' W 086°59'0 0.0
2017-Jan-12 17:32N 20°29' W 086°59'0 0.0
2017-Jan-12 16:31N 20°29' W 086°59'0 0.0
2017-Jan-12 15:31N 20°29' W 086°59'0 0.0
2017-Jan-12 14:34N 20°29' W 086°59'0 0.0
2017-Jan-12 13:33N 20°29' W 086°59'8 7.7
2017-Jan-12 12:33N 20°36' W 086°56'398 8.5
2017-Jan-10 14:00N 27°06' W 088°24'   100 / 251027.010.8 20.010.924.0
2017-Jan-07 23:27N 20°39' W 086°54'1112.4
2017-Jan-07 22:33N 20°29' W 086°59'0 0.0
2017-Jan-07 21:32N 20°29' W 086°59'0 0.0
2017-Jan-07 20:32N 20°29' W 086°59'0 0.0
2017-Jan-07 19:32N 20°29' W 086°59'0 0.0
2017-Jan-07 18:31N 20°29' W 086°59'0 0.0
2017-Jan-07 17:31N 20°29' W 086°59'0 0.0
2017-Jan-07 16:33N 20°29' W 086°59'0 0.0
2017-Jan-07 15:33N 20°29' W 086°59'0 0.0
2017-Jan-07 14:32N 20°29' W 086°59'0 0.2
2017-Jan-07 13:33N 20°29' W 086°59'5 5.3
2017-Jan-07 12:33N 20°34' W 086°57'  

Dump ship's entire track history